Weather at Ngurah Rai (Bali) International Airport

Public forecast

Using degrees Celsius for public forecast. Weather courtesy of forecast.io.

Current aviation weather report (METAR) for Ngurah Rai (Bali) International Airport

Retrieved 2022/08/13 15:00 UTC (27 minutes ago):

WADD 131500Z 16008KT 9999 FEW017 27/26 Q1010 NOSIG

Aviation forecast (TAF) for Ngurah Rai (Bali) International Airport

Retrieved 2022/08/13 12:06 UTC (3 hours ago):

TAF WADD 131100Z 1312/1412 12010KT 9999 SCT017 TEMPO 1316/1320 VRB05KT 5000 TSRA FEW014CB BKN014